sensor_id;sensor_type;location;lat;lon;timestamp;P1;durP1;ratioP1;P2;durP2;ratioP2
39882;SDS011;55824;52.220;21.040;2022-11-12T00:00:49;6.68;;;4.78;;
39882;SDS011;55824;52.220;21.040;2022-11-12T00:03:15;10.52;;;5.65;;
39882;SDS011;55824;52.220;21.040;2022-11-12T00:05:43;7.95;;;4.63;;
39882;SDS011;55824;52.220;21.040;2022-11-12T00:08:09;8.90;;;4.88;;
39882;SDS011;55824;52.220;21.040;2022-11-12T00:10:35;7.82;;;4.70;;
39882;SDS011;55824;52.220;21.040;2022-11-12T00:13:01;6.40;;;4.50;;
39882;SDS011;55824;52.220;21.040;2022-11-12T00:15:27;8.02;;;5.20;;
39882;SDS011;55824;52.220;21.040;2022-11-12T00:17:53;7.35;;;4.40;;
39882;SDS011;55824;52.220;21.040;2022-11-12T00:20:19;7.57;;;4.45;;
39882;SDS011;55824;52.220;21.040;2022-11-12T00:22:45;7.45;;;4.78;;
39882;SDS011;55824;52.220;21.040;2022-11-12T00:25:11;8.20;;;4.15;;
39882;SDS011;55824;52.220;21.040;2022-11-12T00:27:37;7.07;;;4.45;;
39882;SDS011;55824;52.220;21.040;2022-11-12T00:30:03;6.97;;;4.50;;
39882;SDS011;55824;52.220;21.040;2022-11-12T00:32:29;7.55;;;4.60;;
39882;SDS011;55824;52.220;21.040;2022-11-12T00:34:55;7.25;;;4.90;;
39882;SDS011;55824;52.220;21.040;2022-11-12T00:37:21;8.25;;;4.95;;
39882;SDS011;55824;52.220;21.040;2022-11-12T00:39:48;6.57;;;4.47;;
39882;SDS011;55824;52.220;21.040;2022-11-12T00:42:14;7.32;;;4.65;;
39882;SDS011;55824;52.220;21.040;2022-11-12T00:44:40;7.25;;;4.43;;
39882;SDS011;55824;52.220;21.040;2022-11-12T00:47:06;6.93;;;5.00;;
39882;SDS011;55824;52.220;21.040;2022-11-12T00:49:32;7.50;;;4.60;;
39882;SDS011;55824;52.220;21.040;2022-11-12T00:51:58;7.93;;;4.88;;
39882;SDS011;55824;52.220;21.040;2022-11-12T00:54:24;7.68;;;4.28;;
39882;SDS011;55824;52.220;21.040;2022-11-12T00:56:50;6.38;;;4.60;;
39882;SDS011;55824;52.220;21.040;2022-11-12T00:59:16;6.20;;;4.35;;
39882;SDS011;55824;52.220;21.040;2022-11-12T01:01:42;7.65;;;4.40;;
39882;SDS011;55824;52.220;21.040;2022-11-12T01:04:08;7.25;;;4.30;;
39882;SDS011;55824;52.220;21.040;2022-11-12T01:06:37;6.43;;;4.40;;
39882;SDS011;55824;52.220;21.040;2022-11-12T01:09:03;8.43;;;4.65;;
39882;SDS011;55824;52.220;21.040;2022-11-12T01:11:29;7.78;;;4.53;;
39882;SDS011;55824;52.220;21.040;2022-11-12T01:13:57;7.28;;;4.43;;
39882;SDS011;55824;52.220;21.040;2022-11-12T01:16:24;6.47;;;4.18;;
39882;SDS011;55824;52.220;21.040;2022-11-12T01:18:52;6.43;;;4.05;;
39882;SDS011;55824;52.220;21.040;2022-11-12T01:21:19;6.75;;;4.40;;
39882;SDS011;55824;52.220;21.040;2022-11-12T01:23:45;6.30;;;4.20;;
39882;SDS011;55824;52.220;21.040;2022-11-12T01:26:12;6.65;;;4.40;;
39882;SDS011;55824;52.220;21.040;2022-11-12T01:28:38;8.27;;;5.05;;
39882;SDS011;55824;52.220;21.040;2022-11-12T01:33:43;6.05;;;4.35;;
39882;SDS011;55824;52.220;21.040;2022-11-12T01:36:09;6.72;;;4.07;;
39882;SDS011;55824;52.220;21.040;2022-11-12T01:38:36;6.47;;;4.35;;
39882;SDS011;55824;52.220;21.040;2022-11-12T01:41:03;7.72;;;4.00;;
39882;SDS011;55824;52.220;21.040;2022-11-12T01:43:29;7.07;;;4.50;;
39882;SDS011;55824;52.220;21.040;2022-11-12T01:45:55;6.38;;;3.95;;
39882;SDS011;55824;52.220;21.040;2022-11-12T01:50:50;8.25;;;4.60;;
39882;SDS011;55824;52.220;21.040;2022-11-12T01:53:17;7.20;;;4.40;;
39882;SDS011;55824;52.220;21.040;2022-11-12T01:55:44;6.55;;;4.18;;
39882;SDS011;55824;52.220;21.040;2022-11-12T01:58:11;6.13;;;4.50;;
39882;SDS011;55824;52.220;21.040;2022-11-12T02:00:38;6.90;;;4.28;;
39882;SDS011;55824;52.220;21.040;2022-11-12T02:03:06;9.30;;;4.47;;
39882;SDS011;55824;52.220;21.040;2022-11-12T02:05:35;6.38;;;4.13;;
39882;SDS011;55824;52.220;21.040;2022-11-12T02:08:02;9.38;;;4.03;;
39882;SDS011;55824;52.220;21.040;2022-11-12T02:10:29;7.95;;;4.20;;
39882;SDS011;55824;52.220;21.040;2022-11-12T02:12:55;5.97;;;4.10;;
39882;SDS011;55824;52.220;21.040;2022-11-12T02:15:40;5.93;;;3.95;;
39882;SDS011;55824;52.220;21.040;2022-11-12T02:18:06;9.25;;;4.25;;
39882;SDS011;55824;52.220;21.040;2022-11-12T02:20:33;7.07;;;4.00;;
39882;SDS011;55824;52.220;21.040;2022-11-12T02:22:59;5.90;;;3.72;;
39882;SDS011;55824;52.220;21.040;2022-11-12T02:25:25;7.13;;;4.18;;
39882;SDS011;55824;52.220;21.040;2022-11-12T02:27:51;5.75;;;3.78;;
39882;SDS011;55824;52.220;21.040;2022-11-12T02:30:19;6.97;;;3.72;;
39882;SDS011;55824;52.220;21.040;2022-11-12T02:32:55;5.57;;;3.45;;
39882;SDS011;55824;52.220;21.040;2022-11-12T02:35:22;6.22;;;3.80;;
39882;SDS011;55824;52.220;21.040;2022-11-12T02:37:47;8.15;;;4.32;;
39882;SDS011;55824;52.220;21.040;2022-11-12T02:40:13;6.20;;;3.97;;
39882;SDS011;55824;52.220;21.040;2022-11-12T02:42:39;6.40;;;3.83;;
39882;SDS011;55824;52.220;21.040;2022-11-12T02:45:05;5.78;;;3.95;;
39882;SDS011;55824;52.220;21.040;2022-11-12T02:47:32;9.32;;;3.70;;
39882;SDS011;55824;52.220;21.040;2022-11-12T02:49:58;5.93;;;3.78;;
39882;SDS011;55824;52.220;21.040;2022-11-12T02:52:24;7.00;;;4.03;;
39882;SDS011;55824;52.220;21.040;2022-11-12T02:54:50;5.65;;;3.38;;
39882;SDS011;55824;52.220;21.040;2022-11-12T02:57:16;6.22;;;3.88;;
39882;SDS011;55824;52.220;21.040;2022-11-12T02:59:42;5.68;;;3.40;;
39882;SDS011;55824;52.220;21.040;2022-11-12T03:02:08;5.50;;;3.55;;
39882;SDS011;55824;52.220;21.040;2022-11-12T03:04:34;8.52;;;3.53;;
39882;SDS011;55824;52.220;21.040;2022-11-12T03:07:00;5.10;;;3.08;;
39882;SDS011;55824;52.220;21.040;2022-11-12T03:09:26;7.22;;;4.60;;
39882;SDS011;55824;52.220;21.040;2022-11-12T03:11:52;5.00;;;3.33;;
39882;SDS011;55824;52.220;21.040;2022-11-12T03:14:18;6.13;;;3.65;;
39882;SDS011;55824;52.220;21.040;2022-11-12T03:16:44;6.30;;;3.30;;
39882;SDS011;55824;52.220;21.040;2022-11-12T03:19:10;4.88;;;3.45;;
39882;SDS011;55824;52.220;21.040;2022-11-12T03:21:36;6.15;;;3.30;;
39882;SDS011;55824;52.220;21.040;2022-11-12T03:24:02;5.68;;;3.45;;
39882;SDS011;55824;52.220;21.040;2022-11-12T03:26:28;4.63;;;3.28;;
39882;SDS011;55824;52.220;21.040;2022-11-12T03:28:54;6.97;;;3.58;;
39882;SDS011;55824;52.220;21.040;2022-11-12T03:31:20;6.43;;;3.20;;
39882;SDS011;55824;52.220;21.040;2022-11-12T03:33:45;5.00;;;3.15;;
39882;SDS011;55824;52.220;21.040;2022-11-12T03:36:11;5.63;;;3.28;;
39882;SDS011;55824;52.220;21.040;2022-11-12T03:38:37;5.90;;;3.42;;
39882;SDS011;55824;52.220;21.040;2022-11-12T03:41:03;5.82;;;3.17;;
39882;SDS011;55824;52.220;21.040;2022-11-12T03:43:29;4.30;;;2.95;;
39882;SDS011;55824;52.220;21.040;2022-11-12T03:45:55;6.07;;;3.60;;
39882;SDS011;55824;52.220;21.040;2022-11-12T03:48:21;4.43;;;3.00;;
39882;SDS011;55824;52.220;21.040;2022-11-12T03:50:47;5.38;;;3.30;;
39882;SDS011;55824;52.220;21.040;2022-11-12T03:53:13;5.90;;;3.53;;
39882;SDS011;55824;52.220;21.040;2022-11-12T03:55:39;4.60;;;3.20;;
39882;SDS011;55824;52.220;21.040;2022-11-12T03:58:05;5.22;;;2.92;;
39882;SDS011;55824;52.220;21.040;2022-11-12T04:00:31;5.03;;;2.95;;
39882;SDS011;55824;52.220;21.040;2022-11-12T04:02:58;5.00;;;3.20;;
39882;SDS011;55824;52.220;21.040;2022-11-12T04:05:24;5.22;;;2.95;;
39882;SDS011;55824;52.220;21.040;2022-11-12T04:08:11;5.30;;;3.20;;
39882;SDS011;55824;52.220;21.040;2022-11-12T04:10:56;4.97;;;3.40;;
39882;SDS011;55824;52.220;21.040;2022-11-12T04:13:22;5.45;;;3.13;;
39882;SDS011;55824;52.220;21.040;2022-11-12T04:15:55;5.95;;;3.88;;
39882;SDS011;55824;52.220;21.040;2022-11-12T04:18:40;4.13;;;3.08;;
39882;SDS011;55824;52.220;21.040;2022-11-12T04:21:27;5.05;;;2.95;;
39882;SDS011;55824;52.220;21.040;2022-11-12T04:24:13;4.93;;;3.08;;
39882;SDS011;55824;52.220;21.040;2022-11-12T04:26:59;4.80;;;3.00;;
39882;SDS011;55824;52.220;21.040;2022-11-12T04:29:25;4.82;;;3.20;;
39882;SDS011;55824;52.220;21.040;2022-11-12T04:32:10;5.18;;;3.03;;
39882;SDS011;55824;52.220;21.040;2022-11-12T04:34:36;4.43;;;3.10;;
39882;SDS011;55824;52.220;21.040;2022-11-12T04:37:03;5.00;;;3.25;;
39882;SDS011;55824;52.220;21.040;2022-11-12T04:39:29;4.82;;;3.33;;
39882;SDS011;55824;52.220;21.040;2022-11-12T04:41:55;4.53;;;2.83;;
39882;SDS011;55824;52.220;21.040;2022-11-12T04:44:59;5.38;;;3.60;;
39882;SDS011;55824;52.220;21.040;2022-11-12T04:47:30;5.15;;;3.00;;
39882;SDS011;55824;52.220;21.040;2022-11-12T04:49:56;3.97;;;2.63;;
39882;SDS011;55824;52.220;21.040;2022-11-12T04:52:23;4.15;;;2.88;;
39882;SDS011;55824;52.220;21.040;2022-11-12T04:54:49;4.05;;;2.83;;
39882;SDS011;55824;52.220;21.040;2022-11-12T04:57:15;4.53;;;3.13;;
39882;SDS011;55824;52.220;21.040;2022-11-12T04:59:41;4.47;;;3.08;;
39882;SDS011;55824;52.220;21.040;2022-11-12T05:02:07;4.93;;;2.90;;
39882;SDS011;55824;52.220;21.040;2022-11-12T05:04:33;5.53;;;3.08;;
39882;SDS011;55824;52.220;21.040;2022-11-12T05:07:00;5.60;;;3.13;;
39882;SDS011;55824;52.220;21.040;2022-11-12T05:09:27;18.10;;;3.47;;
39882;SDS011;55824;52.220;21.040;2022-11-12T05:11:53;7.05;;;3.17;;
39882;SDS011;55824;52.220;21.040;2022-11-12T05:14:20;3.63;;;2.38;;
39882;SDS011;55824;52.220;21.040;2022-11-12T05:16:46;4.10;;;2.85;;
39882;SDS011;55824;52.220;21.040;2022-11-12T05:19:12;5.13;;;3.20;;
39882;SDS011;55824;52.220;21.040;2022-11-12T05:21:38;4.13;;;2.58;;
39882;SDS011;55824;52.220;21.040;2022-11-12T05:24:23;4.63;;;2.78;;
39882;SDS011;55824;52.220;21.040;2022-11-12T05:26:50;5.15;;;3.10;;
39882;SDS011;55824;52.220;21.040;2022-11-12T05:29:16;5.35;;;3.35;;
39882;SDS011;55824;52.220;21.040;2022-11-12T05:31:43;5.85;;;3.65;;
39882;SDS011;55824;52.220;21.040;2022-11-12T05:34:10;5.78;;;3.20;;
39882;SDS011;55824;52.220;21.040;2022-11-12T05:36:36;4.95;;;3.15;;
39882;SDS011;55824;52.220;21.040;2022-11-12T05:39:03;4.72;;;3.08;;
39882;SDS011;55824;52.220;21.040;2022-11-12T05:41:29;4.75;;;3.20;;
39882;SDS011;55824;52.220;21.040;2022-11-12T05:43:55;7.25;;;3.60;;
39882;SDS011;55824;52.220;21.040;2022-11-12T05:46:21;4.38;;;2.95;;
39882;SDS011;55824;52.220;21.040;2022-11-12T05:48:47;6.43;;;3.47;;
39882;SDS011;55824;52.220;21.040;2022-11-12T05:51:13;4.82;;;3.65;;
39882;SDS011;55824;52.220;21.040;2022-11-12T05:53:40;7.13;;;3.75;;
39882;SDS011;55824;52.220;21.040;2022-11-12T05:56:06;4.40;;;3.35;;
39882;SDS011;55824;52.220;21.040;2022-11-12T05:58:32;6.20;;;3.40;;
39882;SDS011;55824;52.220;21.040;2022-11-12T06:00:58;5.45;;;3.72;;
39882;SDS011;55824;52.220;21.040;2022-11-12T06:03:25;5.68;;;3.65;;
39882;SDS011;55824;52.220;21.040;2022-11-12T06:05:51;6.53;;;3.75;;
39882;SDS011;55824;52.220;21.040;2022-11-12T06:08:17;5.80;;;3.58;;
39882;SDS011;55824;52.220;21.040;2022-11-12T06:10:52;6.57;;;3.45;;
39882;SDS011;55824;52.220;21.040;2022-11-12T06:13:20;5.22;;;3.45;;
39882;SDS011;55824;52.220;21.040;2022-11-12T06:15:46;6.88;;;3.50;;
39882;SDS011;55824;52.220;21.040;2022-11-12T06:18:12;5.35;;;3.55;;
39882;SDS011;55824;52.220;21.040;2022-11-12T06:20:38;6.03;;;3.60;;
39882;SDS011;55824;52.220;21.040;2022-11-12T06:23:04;5.18;;;3.38;;
39882;SDS011;55824;52.220;21.040;2022-11-12T06:25:30;8.95;;;3.63;;
39882;SDS011;55824;52.220;21.040;2022-11-12T06:27:56;5.50;;;3.30;;
39882;SDS011;55824;52.220;21.040;2022-11-12T06:30:22;5.78;;;3.88;;
39882;SDS011;55824;52.220;21.040;2022-11-12T06:32:49;5.63;;;3.80;;
39882;SDS011;55824;52.220;21.040;2022-11-12T06:35:15;4.80;;;3.33;;
39882;SDS011;55824;52.220;21.040;2022-11-12T06:37:42;9.55;;;3.95;;
39882;SDS011;55824;52.220;21.040;2022-11-12T06:40:09;7.30;;;3.80;;
39882;SDS011;55824;52.220;21.040;2022-11-12T06:42:35;6.65;;;4.07;;
39882;SDS011;55824;52.220;21.040;2022-11-12T06:45:01;7.43;;;3.83;;
39882;SDS011;55824;52.220;21.040;2022-11-12T06:47:27;8.70;;;4.65;;
39882;SDS011;55824;52.220;21.040;2022-11-12T06:49:53;7.82;;;4.32;;
39882;SDS011;55824;52.220;21.040;2022-11-12T06:52:19;6.05;;;4.22;;
39882;SDS011;55824;52.220;21.040;2022-11-12T06:54:45;7.97;;;4.80;;
39882;SDS011;55824;52.220;21.040;2022-11-12T06:57:11;6.95;;;4.63;;
39882;SDS011;55824;52.220;21.040;2022-11-12T06:59:37;8.05;;;4.75;;
39882;SDS011;55824;52.220;21.040;2022-11-12T07:02:03;8.88;;;5.47;;
39882;SDS011;55824;52.220;21.040;2022-11-12T07:04:30;7.15;;;5.00;;
39882;SDS011;55824;52.220;21.040;2022-11-12T07:06:56;9.00;;;5.97;;
39882;SDS011;55824;52.220;21.040;2022-11-12T07:09:22;9.40;;;5.88;;
39882;SDS011;55824;52.220;21.040;2022-11-12T07:11:48;10.35;;;6.18;;
39882;SDS011;55824;52.220;21.040;2022-11-12T07:14:14;7.93;;;5.72;;
39882;SDS011;55824;52.220;21.040;2022-11-12T07:16:40;10.10;;;7.32;;
39882;SDS011;55824;52.220;21.040;2022-11-12T07:19:06;88.18;;;78.55;;
39882;SDS011;55824;52.220;21.040;2022-11-12T07:21:32;27.13;;;24.30;;
39882;SDS011;55824;52.220;21.040;2022-11-12T07:23:58;26.38;;;23.55;;
39882;SDS011;55824;52.220;21.040;2022-11-12T07:26:24;22.85;;;18.08;;
39882;SDS011;55824;52.220;21.040;2022-11-12T07:28:51;18.98;;;15.65;;
39882;SDS011;55824;52.220;21.040;2022-11-12T07:31:20;21.70;;;13.47;;
39882;SDS011;55824;52.220;21.040;2022-11-12T07:33:46;21.45;;;13.25;;
39882;SDS011;55824;52.220;21.040;2022-11-12T07:36:14;17.65;;;12.77;;
39882;SDS011;55824;52.220;21.040;2022-11-12T07:38:40;19.10;;;13.32;;
39882;SDS011;55824;52.220;21.040;2022-11-12T07:43:33;13.35;;;11.50;;
39882;SDS011;55824;52.220;21.040;2022-11-12T07:48:29;18.50;;;11.57;;
39882;SDS011;55824;52.220;21.040;2022-11-12T07:51:01;20.17;;;11.18;;
39882;SDS011;55824;52.220;21.040;2022-11-12T07:53:28;23.98;;;12.25;;
39882;SDS011;55824;52.220;21.040;2022-11-12T07:55:55;17.65;;;11.65;;
39882;SDS011;55824;52.220;21.040;2022-11-12T07:58:21;19.63;;;12.07;;
39882;SDS011;55824;52.220;21.040;2022-11-12T08:00:47;18.52;;;10.82;;
39882;SDS011;55824;52.220;21.040;2022-11-12T08:03:13;18.67;;;12.98;;
39882;SDS011;55824;52.220;21.040;2022-11-12T08:05:39;19.33;;;13.30;;
39882;SDS011;55824;52.220;21.040;2022-11-12T08:08:05;18.77;;;12.88;;
39882;SDS011;55824;52.220;21.040;2022-11-12T08:10:31;17.17;;;12.95;;
39882;SDS011;55824;52.220;21.040;2022-11-12T08:12:57;16.88;;;11.70;;
39882;SDS011;55824;52.220;21.040;2022-11-12T08:15:23;28.70;;;16.55;;
39882;SDS011;55824;52.220;21.040;2022-11-12T08:17:49;26.75;;;17.45;;
39882;SDS011;55824;52.220;21.040;2022-11-12T08:20:15;23.73;;;15.27;;
39882;SDS011;55824;52.220;21.040;2022-11-12T08:22:41;30.83;;;19.88;;
39882;SDS011;55824;52.220;21.040;2022-11-12T08:25:07;23.30;;;15.88;;
39882;SDS011;55824;52.220;21.040;2022-11-12T08:27:33;22.50;;;14.20;;
39882;SDS011;55824;52.220;21.040;2022-11-12T08:30:00;22.90;;;14.48;;
39882;SDS011;55824;52.220;21.040;2022-11-12T08:32:26;30.73;;;16.30;;
39882;SDS011;55824;52.220;21.040;2022-11-12T08:34:52;40.40;;;20.17;;
39882;SDS011;55824;52.220;21.040;2022-11-12T08:37:18;37.55;;;21.23;;
39882;SDS011;55824;52.220;21.040;2022-11-12T08:39:44;42.85;;;22.52;;
39882;SDS011;55824;52.220;21.040;2022-11-12T08:42:10;42.95;;;24.85;;
39882;SDS011;55824;52.220;21.040;2022-11-12T08:44:36;44.97;;;25.00;;
39882;SDS011;55824;52.220;21.040;2022-11-12T08:47:02;33.42;;;20.90;;
39882;SDS011;55824;52.220;21.040;2022-11-12T08:49:28;36.05;;;21.95;;
39882;SDS011;55824;52.220;21.040;2022-11-12T08:51:54;42.28;;;20.05;;
39882;SDS011;55824;52.220;21.040;2022-11-12T08:54:21;29.83;;;18.42;;
39882;SDS011;55824;52.220;21.040;2022-11-12T08:56:47;33.15;;;17.00;;
39882;SDS011;55824;52.220;21.040;2022-11-12T08:59:13;27.77;;;17.85;;
39882;SDS011;55824;52.220;21.040;2022-11-12T09:01:40;27.23;;;16.35;;
39882;SDS011;55824;52.220;21.040;2022-11-12T09:04:06;27.85;;;16.08;;
39882;SDS011;55824;52.220;21.040;2022-11-12T09:06:32;22.58;;;15.75;;
39882;SDS011;55824;52.220;21.040;2022-11-12T09:08:58;25.30;;;14.48;;
39882;SDS011;55824;52.220;21.040;2022-11-12T09:11:24;30.10;;;15.15;;
39882;SDS011;55824;52.220;21.040;2022-11-12T09:13:53;32.65;;;14.88;;
39882;SDS011;55824;52.220;21.040;2022-11-12T09:16:19;22.33;;;14.32;;
39882;SDS011;55824;52.220;21.040;2022-11-12T09:18:46;20.48;;;13.57;;
39882;SDS011;55824;52.220;21.040;2022-11-12T09:21:12;22.20;;;13.60;;
39882;SDS011;55824;52.220;21.040;2022-11-12T09:23:38;18.80;;;14.38;;
39882;SDS011;55824;52.220;21.040;2022-11-12T09:26:05;18.30;;;13.52;;
39882;SDS011;55824;52.220;21.040;2022-11-12T09:28:31;22.15;;;14.48;;
39882;SDS011;55824;52.220;21.040;2022-11-12T09:30:57;25.52;;;14.20;;
39882;SDS011;55824;52.220;21.040;2022-11-12T09:33:29;19.90;;;13.30;;
39882;SDS011;55824;52.220;21.040;2022-11-12T09:35:55;16.75;;;11.75;;
39882;SDS011;55824;52.220;21.040;2022-11-12T09:38:21;16.42;;;12.32;;
39882;SDS011;55824;52.220;21.040;2022-11-12T09:43:30;16.65;;;12.10;;
39882;SDS011;55824;52.220;21.040;2022-11-12T09:46:00;17.02;;;11.93;;
39882;SDS011;55824;52.220;21.040;2022-11-12T09:48:41;14.77;;;11.50;;
39882;SDS011;55824;52.220;21.040;2022-11-12T09:53:46;17.08;;;12.80;;
39882;SDS011;55824;52.220;21.040;2022-11-12T09:56:13;14.77;;;12.32;;
39882;SDS011;55824;52.220;21.040;2022-11-12T09:58:41;14.98;;;11.88;;
39882;SDS011;55824;52.220;21.040;2022-11-12T10:06:28;13.23;;;10.30;;
39882;SDS011;55824;52.220;21.040;2022-11-12T10:09:12;14.63;;;11.05;;
39882;SDS011;55824;52.220;21.040;2022-11-12T10:20:19;13.60;;;11.68;;
39882;SDS011;55824;52.220;21.040;2022-11-12T10:25:14;13.95;;;11.73;;
39882;SDS011;55824;52.220;21.040;2022-11-12T10:27:41;13.15;;;11.25;;
39882;SDS011;55824;52.220;21.040;2022-11-12T10:30:17;13.02;;;10.93;;
39882;SDS011;55824;52.220;21.040;2022-11-12T10:32:44;14.07;;;11.00;;
39882;SDS011;55824;52.220;21.040;2022-11-12T10:35:12;12.93;;;10.77;;
39882;SDS011;55824;52.220;21.040;2022-11-12T10:37:46;12.95;;;11.07;;
39882;SDS011;55824;52.220;21.040;2022-11-12T10:45:21;12.55;;;10.43;;
39882;SDS011;55824;52.220;21.040;2022-11-12T10:47:48;12.73;;;11.02;;
39882;SDS011;55824;52.220;21.040;2022-11-12T10:50:24;12.15;;;10.07;;
39882;SDS011;55824;52.220;21.040;2022-11-12T10:53:03;12.63;;;10.90;;
39882;SDS011;55824;52.220;21.040;2022-11-12T11:00:30;13.25;;;10.60;;
39882;SDS011;55824;52.220;21.040;2022-11-12T11:02:57;12.07;;;10.20;;
39882;SDS011;55824;52.220;21.040;2022-11-12T11:07:52;13.82;;;11.15;;
39882;SDS011;55824;52.220;21.040;2022-11-12T11:12:48;11.55;;;10.32;;
39882;SDS011;55824;52.220;21.040;2022-11-12T11:17:43;10.73;;;9.52;;
39882;SDS011;55824;52.220;21.040;2022-11-12T11:20:21;10.65;;;9.52;;
39882;SDS011;55824;52.220;21.040;2022-11-12T11:23:22;10.73;;;9.20;;
39882;SDS011;55824;52.220;21.040;2022-11-12T11:25:40;12.23;;;9.77;;
39882;SDS011;55824;52.220;21.040;2022-11-12T11:30:43;10.10;;;9.02;;
39882;SDS011;55824;52.220;21.040;2022-11-12T11:38:40;10.43;;;9.32;;
39882;SDS011;55824;52.220;21.040;2022-11-12T11:56:24;12.40;;;9.48;;
39882;SDS011;55824;52.220;21.040;2022-11-12T11:58:58;10.50;;;8.25;;
39882;SDS011;55824;52.220;21.040;2022-11-12T12:01:37;10.15;;;9.15;;
39882;SDS011;55824;52.220;21.040;2022-11-12T12:06:45;9.35;;;7.75;;
39882;SDS011;55824;52.220;21.040;2022-11-12T12:17:13;9.27;;;8.13;;
39882;SDS011;55824;52.220;21.040;2022-11-12T12:19:58;9.68;;;8.48;;
39882;SDS011;55824;52.220;21.040;2022-11-12T12:22:41;9.13;;;8.10;;
39882;SDS011;55824;52.220;21.040;2022-11-12T12:25:11;9.70;;;8.23;;
39882;SDS011;55824;52.220;21.040;2022-11-12T12:27:41;9.30;;;7.87;;
39882;SDS011;55824;52.220;21.040;2022-11-12T12:30:16;8.45;;;7.25;;
39882;SDS011;55824;52.220;21.040;2022-11-12T12:32:54;9.98;;;7.55;;
39882;SDS011;55824;52.220;21.040;2022-11-12T12:35:30;7.93;;;7.10;;
39882;SDS011;55824;52.220;21.040;2022-11-12T12:38:12;8.85;;;7.15;;
39882;SDS011;55824;52.220;21.040;2022-11-12T12:40:43;8.85;;;7.53;;
39882;SDS011;55824;52.220;21.040;2022-11-12T12:45:40;8.83;;;7.50;;
39882;SDS011;55824;52.220;21.040;2022-11-12T12:48:12;9.32;;;6.93;;
39882;SDS011;55824;52.220;21.040;2022-11-12T12:50:38;8.02;;;6.80;;
39882;SDS011;55824;52.220;21.040;2022-11-12T12:55:40;7.80;;;6.43;;
39882;SDS011;55824;52.220;21.040;2022-11-12T12:58:26;9.00;;;7.22;;
39882;SDS011;55824;52.220;21.040;2022-11-12T13:00:57;7.97;;;6.60;;
39882;SDS011;55824;52.220;21.040;2022-11-12T13:03:43;9.98;;;7.32;;
39882;SDS011;55824;52.220;21.040;2022-11-12T13:06:14;10.00;;;6.97;;
39882;SDS011;55824;52.220;21.040;2022-11-12T13:08:41;7.35;;;6.28;;
39882;SDS011;55824;52.220;21.040;2022-11-12T13:11:07;10.10;;;6.70;;
39882;SDS011;55824;52.220;21.040;2022-11-12T13:13:34;7.25;;;5.95;;
39882;SDS011;55824;52.220;21.040;2022-11-12T13:16:01;7.00;;;6.05;;
39882;SDS011;55824;52.220;21.040;2022-11-12T13:23:47;7.10;;;6.00;;
39882;SDS011;55824;52.220;21.040;2022-11-12T13:34:39;8.98;;;6.07;;
39882;SDS011;55824;52.220;21.040;2022-11-12T13:37:05;6.80;;;5.28;;
39882;SDS011;55824;52.220;21.040;2022-11-12T13:39:31;6.45;;;5.35;;
39882;SDS011;55824;52.220;21.040;2022-11-12T13:41:59;6.55;;;5.45;;
39882;SDS011;55824;52.220;21.040;2022-11-12T13:44:45;7.88;;;5.57;;
39882;SDS011;55824;52.220;21.040;2022-11-12T13:47:12;7.10;;;5.53;;
39882;SDS011;55824;52.220;21.040;2022-11-12T13:49:41;6.70;;;5.13;;
39882;SDS011;55824;52.220;21.040;2022-11-12T13:52:07;7.10;;;5.53;;
39882;SDS011;55824;52.220;21.040;2022-11-12T13:54:34;6.80;;;5.28;;
39882;SDS011;55824;52.220;21.040;2022-11-12T13:59:47;6.78;;;5.25;;
39882;SDS011;55824;52.220;21.040;2022-11-12T14:02:22;6.53;;;5.35;;
39882;SDS011;55824;52.220;21.040;2022-11-12T14:04:49;6.43;;;4.50;;
39882;SDS011;55824;52.220;21.040;2022-11-12T14:07:23;6.85;;;5.25;;
39882;SDS011;55824;52.220;21.040;2022-11-12T14:12:29;7.20;;;5.03;;
39882;SDS011;55824;52.220;21.040;2022-11-12T14:18:10;7.03;;;5.60;;
39882;SDS011;55824;52.220;21.040;2022-11-12T14:22:43;7.18;;;5.18;;
39882;SDS011;55824;52.220;21.040;2022-11-12T14:25:13;7.05;;;5.18;;
39882;SDS011;55824;52.220;21.040;2022-11-12T14:27:41;8.38;;;5.03;;
39882;SDS011;55824;52.220;21.040;2022-11-12T14:32:36;6.78;;;5.28;;
39882;SDS011;55824;52.220;21.040;2022-11-12T14:37:31;10.40;;;5.30;;
39882;SDS011;55824;52.220;21.040;2022-11-12T14:39:59;14.77;;;5.80;;
39882;SDS011;55824;52.220;21.040;2022-11-12T14:42:25;6.57;;;5.10;;
39882;SDS011;55824;52.220;21.040;2022-11-12T14:44:51;11.90;;;4.85;;
39882;SDS011;55824;52.220;21.040;2022-11-12T14:47:17;9.95;;;4.97;;
39882;SDS011;55824;52.220;21.040;2022-11-12T14:49:44;15.27;;;5.72;;
39882;SDS011;55824;52.220;21.040;2022-11-12T14:52:13;9.10;;;5.20;;
39882;SDS011;55824;52.220;21.040;2022-11-12T14:54:41;9.85;;;4.90;;
39882;SDS011;55824;52.220;21.040;2022-11-12T14:57:08;12.20;;;5.63;;
39882;SDS011;55824;52.220;21.040;2022-11-12T14:59:36;9.50;;;5.80;;
39882;SDS011;55824;52.220;21.040;2022-11-12T15:02:12;6.47;;;5.22;;
39882;SDS011;55824;52.220;21.040;2022-11-12T15:04:53;12.32;;;5.93;;
39882;SDS011;55824;52.220;21.040;2022-11-12T15:07:29;9.63;;;5.95;;
39882;SDS011;55824;52.220;21.040;2022-11-12T15:09:57;7.38;;;5.15;;
39882;SDS011;55824;52.220;21.040;2022-11-12T15:12:24;6.13;;;5.20;;
39882;SDS011;55824;52.220;21.040;2022-11-12T15:14:51;7.97;;;5.40;;
39882;SDS011;55824;52.220;21.040;2022-11-12T15:17:31;8.05;;;5.60;;
39882;SDS011;55824;52.220;21.040;2022-11-12T15:20:13;14.63;;;6.40;;
39882;SDS011;55824;52.220;21.040;2022-11-12T15:22:47;16.65;;;5.75;;
39882;SDS011;55824;52.220;21.040;2022-11-12T15:25:18;13.57;;;5.78;;
39882;SDS011;55824;52.220;21.040;2022-11-12T15:27:44;11.77;;;5.68;;
39882;SDS011;55824;52.220;21.040;2022-11-12T15:32:40;9.25;;;5.55;;
39882;SDS011;55824;52.220;21.040;2022-11-12T15:35:19;11.07;;;5.88;;
39882;SDS011;55824;52.220;21.040;2022-11-12T15:37:46;9.95;;;5.80;;
39882;SDS011;55824;52.220;21.040;2022-11-12T15:40:16;8.68;;;6.18;;
39882;SDS011;55824;52.220;21.040;2022-11-12T15:42:42;7.70;;;6.20;;
39882;SDS011;55824;52.220;21.040;2022-11-12T15:45:11;8.13;;;5.57;;
39882;SDS011;55824;52.220;21.040;2022-11-12T15:47:38;8.60;;;6.03;;
39882;SDS011;55824;52.220;21.040;2022-11-12T15:50:14;8.38;;;5.85;;
39882;SDS011;55824;52.220;21.040;2022-11-12T15:52:40;8.40;;;6.25;;
39882;SDS011;55824;52.220;21.040;2022-11-12T15:55:06;10.98;;;5.90;;
39882;SDS011;55824;52.220;21.040;2022-11-12T15:57:33;10.40;;;5.60;;
39882;SDS011;55824;52.220;21.040;2022-11-12T16:00:02;10.13;;;5.88;;
39882;SDS011;55824;52.220;21.040;2022-11-12T16:02:29;10.90;;;6.50;;
39882;SDS011;55824;52.220;21.040;2022-11-12T16:04:56;9.18;;;6.72;;
39882;SDS011;55824;52.220;21.040;2022-11-12T16:07:22;10.73;;;5.88;;
39882;SDS011;55824;52.220;21.040;2022-11-12T16:09:48;9.90;;;6.00;;
39882;SDS011;55824;52.220;21.040;2022-11-12T16:12:14;11.68;;;6.32;;
39882;SDS011;55824;52.220;21.040;2022-11-12T16:14:40;11.27;;;6.68;;
39882;SDS011;55824;52.220;21.040;2022-11-12T16:17:16;9.00;;;6.57;;
39882;SDS011;55824;52.220;21.040;2022-11-12T16:19:42;8.45;;;5.85;;
39882;SDS011;55824;52.220;21.040;2022-11-12T16:22:08;10.80;;;5.72;;
39882;SDS011;55824;52.220;21.040;2022-11-12T16:24:38;7.72;;;6.03;;
39882;SDS011;55824;52.220;21.040;2022-11-12T16:27:04;9.13;;;5.80;;
39882;SDS011;55824;52.220;21.040;2022-11-12T16:29:32;9.90;;;6.13;;
39882;SDS011;55824;52.220;21.040;2022-11-12T16:31:58;8.48;;;5.57;;
39882;SDS011;55824;52.220;21.040;2022-11-12T16:34:24;7.70;;;5.72;;